sensor_id;sensor_type;location;lat;lon;timestamp;pressure;altitude;pressure_sealevel;temperature;humidity
49044;BME280;34860;48.066;14.124;2022-10-31T00:02:08;97110.78;;;12.05;78.50
49044;BME280;34860;48.066;14.124;2022-10-31T00:04:56;97106.75;;;12.06;78.40
49044;BME280;34860;48.066;14.124;2022-10-31T00:07:45;97104.41;;;12.04;78.29
49044;BME280;34860;48.066;14.124;2022-10-31T00:10:38;97102.06;;;12.03;78.48
49044;BME280;34860;48.066;14.124;2022-10-31T00:13:27;97107.28;;;12.01;78.39
49044;BME280;34860;48.066;14.124;2022-10-31T00:16:16;97107.38;;;11.97;78.36
49044;BME280;34860;48.066;14.124;2022-10-31T00:19:07;97110.94;;;11.97;78.21
49044;BME280;34860;48.066;14.124;2022-10-31T00:21:55;97110.16;;;11.97;78.02
49044;BME280;34860;48.066;14.124;2022-10-31T00:24:44;97111.69;;;11.81;78.06
49044;BME280;34860;48.066;14.124;2022-10-31T00:27:34;97113.50;;;11.55;78.48
49044;BME280;34860;48.066;14.124;2022-10-31T00:30:23;97115.25;;;11.29;79.02
49044;BME280;34860;48.066;14.124;2022-10-31T00:33:12;97115.91;;;11.17;79.37
49044;BME280;34860;48.066;14.124;2022-10-31T00:36:01;97117.88;;;11.00;79.52
49044;BME280;34860;48.066;14.124;2022-10-31T00:38:50;97118.88;;;10.89;79.65
49044;BME280;34860;48.066;14.124;2022-10-31T00:41:40;97124.81;;;10.92;79.37
49044;BME280;34860;48.066;14.124;2022-10-31T00:44:33;97125.56;;;10.92;79.11
49044;BME280;34860;48.066;14.124;2022-10-31T00:47:21;97128.28;;;10.96;78.71
49044;BME280;34860;48.066;14.124;2022-10-31T00:50:10;97126.72;;;10.95;78.42
49044;BME280;34860;48.066;14.124;2022-10-31T00:52:59;97129.63;;;10.87;78.20
49044;BME280;34860;48.066;14.124;2022-10-31T00:55:48;97124.22;;;10.80;78.24
49044;BME280;34860;48.066;14.124;2022-10-31T00:58:36;97122.31;;;10.77;78.17
49044;BME280;34860;48.066;14.124;2022-10-31T01:01:28;97130.41;;;10.68;78.50
49044;BME280;34860;48.066;14.124;2022-10-31T01:04:16;97130.41;;;10.68;78.45
49044;BME280;34860;48.066;14.124;2022-10-31T01:07:05;97127.34;;;10.62;78.45
49044;BME280;34860;48.066;14.124;2022-10-31T01:09:54;97119.22;;;10.51;78.62
49044;BME280;34860;48.066;14.124;2022-10-31T01:12:47;97119.47;;;10.37;78.98
49044;BME280;34860;48.066;14.124;2022-10-31T01:15:35;97128.75;;;10.27;79.17
49044;BME280;34860;48.066;14.124;2022-10-31T01:18:28;97130.44;;;10.21;79.35
49044;BME280;34860;48.066;14.124;2022-10-31T01:21:19;97126.75;;;10.27;79.09
49044;BME280;34860;48.066;14.124;2022-10-31T01:24:08;97121.81;;;10.39;78.92
49044;BME280;34860;48.066;14.124;2022-10-31T01:26:57;97118.41;;;10.51;78.52
49044;BME280;34860;48.066;14.124;2022-10-31T01:29:46;97117.44;;;10.61;78.23
49044;BME280;34860;48.066;14.124;2022-10-31T01:32:35;97112.81;;;10.75;78.10
49044;BME280;34860;48.066;14.124;2022-10-31T01:35:26;97116.09;;;10.89;77.84
49044;BME280;34860;48.066;14.124;2022-10-31T01:38:18;97120.94;;;10.85;77.64
49044;BME280;34860;48.066;14.124;2022-10-31T01:41:08;97121.34;;;10.64;77.86
49044;BME280;34860;48.066;14.124;2022-10-31T01:43:59;97124.63;;;10.59;78.12
49044;BME280;34860;48.066;14.124;2022-10-31T01:46:50;97121.50;;;10.57;78.04
49044;BME280;34860;48.066;14.124;2022-10-31T01:49:43;97119.16;;;10.55;77.95
49044;BME280;34860;48.066;14.124;2022-10-31T01:52:38;97116.88;;;10.50;77.70
49044;BME280;34860;48.066;14.124;2022-10-31T01:55:32;97122.53;;;10.43;77.73
49044;BME280;34860;48.066;14.124;2022-10-31T01:58:25;97119.53;;;10.33;77.82
49044;BME280;34860;48.066;14.124;2022-10-31T02:01:16;97115.63;;;10.27;77.78
49044;BME280;34860;48.066;14.124;2022-10-31T02:04:07;97117.78;;;10.20;77.78
49044;BME280;34860;48.066;14.124;2022-10-31T02:06:59;97118.31;;;10.11;77.85
49044;BME280;34860;48.066;14.124;2022-10-31T02:09:51;97120.78;;;10.05;77.98
49044;BME280;34860;48.066;14.124;2022-10-31T02:12:42;97125.25;;;9.99;77.89
49044;BME280;34860;48.066;14.124;2022-10-31T02:15:32;97116.19;;;9.95;77.90
49044;BME280;34860;48.066;14.124;2022-10-31T02:18:23;97120.28;;;9.87;78.17
49044;BME280;34860;48.066;14.124;2022-10-31T02:21:16;97111.91;;;9.90;78.18
49044;BME280;34860;48.066;14.124;2022-10-31T02:24:30;97116.31;;;9.88;78.13
49044;BME280;34860;48.066;14.124;2022-10-31T02:27:42;97114.97;;;9.72;78.50
49044;BME280;34860;48.066;14.124;2022-10-31T02:30:53;97114.22;;;9.68;78.63
49044;BME280;34860;48.066;14.124;2022-10-31T02:33:48;97112.59;;;9.71;78.62
49044;BME280;34860;48.066;14.124;2022-10-31T02:36:42;97115.25;;;9.78;78.40
49044;BME280;34860;48.066;14.124;2022-10-31T02:39:36;97116.34;;;9.84;78.12
49044;BME280;34860;48.066;14.124;2022-10-31T02:42:32;97120.72;;;9.85;77.82
49044;BME280;34860;48.066;14.124;2022-10-31T02:49:23;97119.94;;;9.85;77.51
49044;BME280;34860;48.066;14.124;2022-10-31T02:52:20;97116.16;;;9.71;77.53
49044;BME280;34860;48.066;14.124;2022-10-31T02:55:38;97116.38;;;9.57;77.78
49044;BME280;34860;48.066;14.124;2022-10-31T02:58:26;97118.16;;;9.43;77.93
49044;BME280;34860;48.066;14.124;2022-10-31T03:01:21;97121.84;;;9.37;78.08
49044;BME280;34860;48.066;14.124;2022-10-31T03:04:43;97116.28;;;9.37;77.73
49044;BME280;34860;48.066;14.124;2022-10-31T03:07:42;97112.34;;;9.34;77.78
49044;BME280;34860;48.066;14.124;2022-10-31T03:10:41;97115.53;;;9.33;77.74
49044;BME280;34860;48.066;14.124;2022-10-31T03:13:39;97113.13;;;9.35;77.64
49044;BME280;34860;48.066;14.124;2022-10-31T03:16:37;97119.06;;;9.37;77.41
49044;BME280;34860;48.066;14.124;2022-10-31T03:19:31;97125.31;;;9.41;77.43
49044;BME280;34860;48.066;14.124;2022-10-31T03:22:22;97116.16;;;9.44;77.28
49044;BME280;34860;48.066;14.124;2022-10-31T03:25:12;97112.91;;;9.49;77.25
49044;BME280;34860;48.066;14.124;2022-10-31T03:28:03;97125.13;;;9.55;77.09
49044;BME280;34860;48.066;14.124;2022-10-31T03:30:54;97123.44;;;9.61;77.10
49044;BME280;34860;48.066;14.124;2022-10-31T03:33:47;97125.44;;;9.61;77.04
49044;BME280;34860;48.066;14.124;2022-10-31T03:36:38;97123.44;;;9.61;77.13
49044;BME280;34860;48.066;14.124;2022-10-31T03:39:29;97125.44;;;9.61;76.99
49044;BME280;34860;48.066;14.124;2022-10-31T03:42:22;97121.88;;;9.60;77.01
49044;BME280;34860;48.066;14.124;2022-10-31T03:45:15;97132.59;;;9.58;77.22
49044;BME280;34860;48.066;14.124;2022-10-31T03:48:09;97122.31;;;9.59;77.24
49044;BME280;34860;48.066;14.124;2022-10-31T03:51:06;97131.84;;;9.58;77.31
49044;BME280;34860;48.066;14.124;2022-10-31T03:54:03;97127.41;;;9.60;77.13
49044;BME280;34860;48.066;14.124;2022-10-31T03:56:56;97132.13;;;9.63;77.13
49044;BME280;34860;48.066;14.124;2022-10-31T03:59:48;97119.47;;;9.62;77.09
49044;BME280;34860;48.066;14.124;2022-10-31T04:02:41;97128.28;;;9.57;77.18
49044;BME280;34860;48.066;14.124;2022-10-31T04:05:34;97128.44;;;9.47;77.28
49044;BME280;34860;48.066;14.124;2022-10-31T04:08:28;97131.28;;;9.39;77.51
49044;BME280;34860;48.066;14.124;2022-10-31T04:11:21;97133.28;;;9.39;77.55
49044;BME280;34860;48.066;14.124;2022-10-31T04:14:39;97136.25;;;9.24;77.79
49044;BME280;34860;48.066;14.124;2022-10-31T04:17:31;97130.44;;;9.15;78.07
49044;BME280;34860;48.066;14.124;2022-10-31T04:20:29;97132.38;;;9.18;78.21
49044;BME280;34860;48.066;14.124;2022-10-31T04:23:22;97129.53;;;9.22;78.32
49044;BME280;34860;48.066;14.124;2022-10-31T04:26:13;97125.84;;;9.32;77.98
49044;BME280;34860;48.066;14.124;2022-10-31T04:29:03;97131.25;;;9.43;77.79
49044;BME280;34860;48.066;14.124;2022-10-31T04:31:52;97135.13;;;9.49;77.57
49044;BME280;34860;48.066;14.124;2022-10-31T04:34:40;97137.88;;;9.49;77.67
49044;BME280;34860;48.066;14.124;2022-10-31T04:37:30;97127.19;;;9.51;77.55
49044;BME280;34860;48.066;14.124;2022-10-31T04:40:23;97127.91;;;9.55;77.50
49044;BME280;34860;48.066;14.124;2022-10-31T04:43:34;97134.41;;;9.45;77.35
49044;BME280;34860;48.066;14.124;2022-10-31T04:46:22;97131.81;;;9.31;77.59
49044;BME280;34860;48.066;14.124;2022-10-31T04:49:11;97137.50;;;9.20;77.75
49044;BME280;34860;48.066;14.124;2022-10-31T04:52:00;97130.91;;;9.10;77.80
49044;BME280;34860;48.066;14.124;2022-10-31T04:54:49;97132.91;;;9.06;77.85
49044;BME280;34860;48.066;14.124;2022-10-31T04:58:12;97132.13;;;9.05;77.75
49044;BME280;34860;48.066;14.124;2022-10-31T05:01:06;97138.88;;;9.04;77.78
49044;BME280;34860;48.066;14.124;2022-10-31T05:03:54;97138.22;;;8.97;77.97
49044;BME280;34860;48.066;14.124;2022-10-31T05:06:43;97132.38;;;8.87;78.15
49044;BME280;34860;48.066;14.124;2022-10-31T05:09:33;97131.56;;;8.87;78.29
49044;BME280;34860;48.066;14.124;2022-10-31T05:12:22;97139.03;;;8.94;78.21
49044;BME280;34860;48.066;14.124;2022-10-31T05:15:35;97138.31;;;8.86;78.33
49044;BME280;34860;48.066;14.124;2022-10-31T05:18:42;97135.72;;;8.71;78.62
49044;BME280;34860;48.066;14.124;2022-10-31T05:21:49;97142.13;;;8.65;78.77
49044;BME280;34860;48.066;14.124;2022-10-31T05:24:39;97140.19;;;8.58;78.85
49044;BME280;34860;48.066;14.124;2022-10-31T05:27:29;97142.66;;;8.52;78.81
49044;BME280;34860;48.066;14.124;2022-10-31T05:30:19;97149.38;;;8.51;78.76
49044;BME280;34860;48.066;14.124;2022-10-31T05:33:10;97144.19;;;8.53;78.63
49044;BME280;34860;48.066;14.124;2022-10-31T05:36:18;97149.81;;;8.46;78.65
49044;BME280;34860;48.066;14.124;2022-10-31T05:39:24;97143.91;;;8.44;78.71
49044;BME280;34860;48.066;14.124;2022-10-31T05:42:18;97144.25;;;8.50;78.68
49044;BME280;34860;48.066;14.124;2022-10-31T05:45:09;97147.44;;;8.48;78.55
49044;BME280;34860;48.066;14.124;2022-10-31T05:48:12;97146.72;;;8.37;78.72
49044;BME280;34860;48.066;14.124;2022-10-31T05:51:20;97154.28;;;8.33;78.86
49044;BME280;34860;48.066;14.124;2022-10-31T05:54:11;97154.31;;;8.29;78.97
49044;BME280;34860;48.066;14.124;2022-10-31T05:57:04;97149.13;;;8.35;78.87
49044;BME280;34860;48.066;14.124;2022-10-31T05:59:54;97153.03;;;8.37;78.71
49044;BME280;34860;48.066;14.124;2022-10-31T06:02:43;97149.06;;;8.46;78.50
49044;BME280;34860;48.066;14.124;2022-10-31T06:05:53;97153.72;;;8.52;78.41
49044;BME280;34860;48.066;14.124;2022-10-31T06:08:45;97148.91;;;8.60;78.03
49044;BME280;34860;48.066;14.124;2022-10-31T06:11:38;97152.81;;;8.63;77.77
49044;BME280;34860;48.066;14.124;2022-10-31T06:14:50;97158.34;;;8.63;77.71
49044;BME280;34860;48.066;14.124;2022-10-31T06:17:39;97158.75;;;8.65;77.61
49044;BME280;34860;48.066;14.124;2022-10-31T06:20:36;97153.91;;;8.72;77.34
49044;BME280;34860;48.066;14.124;2022-10-31T06:23:26;97159.78;;;8.78;77.50
49044;BME280;34860;48.066;14.124;2022-10-31T06:26:35;97164.09;;;8.83;77.20
49044;BME280;34860;48.066;14.124;2022-10-31T06:29:24;97163.69;;;8.84;77.30
49044;BME280;34860;48.066;14.124;2022-10-31T06:32:21;97168.75;;;8.89;77.18
49044;BME280;34860;48.066;14.124;2022-10-31T06:35:10;97166.34;;;8.95;77.24
49044;BME280;34860;48.066;14.124;2022-10-31T06:38:00;97167.00;;;9.03;77.12
49044;BME280;34860;48.066;14.124;2022-10-31T06:40:57;97169.06;;;8.99;77.23
49044;BME280;34860;48.066;14.124;2022-10-31T06:43:47;97173.38;;;9.00;77.42
49044;BME280;34860;48.066;14.124;2022-10-31T06:47:05;97177.31;;;9.02;77.52
49044;BME280;34860;48.066;14.124;2022-10-31T06:50:14;97180.44;;;9.08;77.33
49044;BME280;34860;48.066;14.124;2022-10-31T06:53:05;97187.13;;;9.11;77.34
49044;BME280;34860;48.066;14.124;2022-10-31T06:55:54;97189.50;;;9.12;77.33
49044;BME280;34860;48.066;14.124;2022-10-31T06:58:45;97197.50;;;9.03;77.83
49044;BME280;34860;48.066;14.124;2022-10-31T07:01:36;97197.25;;;8.90;78.07
49044;BME280;34860;48.066;14.124;2022-10-31T07:04:25;97194.94;;;8.85;78.19
49044;BME280;34860;48.066;14.124;2022-10-31T07:07:15;97191.44;;;8.81;78.42
49044;BME280;34860;48.066;14.124;2022-10-31T07:10:05;97196.91;;;8.88;78.38
49044;BME280;34860;48.066;14.124;2022-10-31T07:13:06;97195.91;;;9.05;77.96
49044;BME280;34860;48.066;14.124;2022-10-31T07:16:02;97193.03;;;9.16;77.29
49044;BME280;34860;48.066;14.124;2022-10-31T07:18:53;97193.91;;;9.09;77.76
49044;BME280;34860;48.066;14.124;2022-10-31T07:21:42;97206.78;;;9.23;77.74
49044;BME280;34860;48.066;14.124;2022-10-31T07:24:33;97199.13;;;9.35;77.42
49044;BME280;34860;48.066;14.124;2022-10-31T07:27:45;97196.69;;;9.40;77.33
49044;BME280;34860;48.066;14.124;2022-10-31T07:30:34;97202.59;;;9.42;77.11
49044;BME280;34860;48.066;14.124;2022-10-31T07:33:25;97192.72;;;9.38;77.07
49044;BME280;34860;48.066;14.124;2022-10-31T07:36:34;97197.44;;;9.41;76.93
49044;BME280;34860;48.066;14.124;2022-10-31T07:39:23;97199.09;;;9.38;76.98
49044;BME280;34860;48.066;14.124;2022-10-31T07:42:12;97199.44;;;9.40;76.98
49044;BME280;34860;48.066;14.124;2022-10-31T07:45:05;97189.88;;;9.45;76.81
49044;BME280;34860;48.066;14.124;2022-10-31T07:48:24;97189.53;;;9.43;76.65
49044;BME280;34860;48.066;14.124;2022-10-31T07:51:48;97196.16;;;9.49;76.52
49044;BME280;34860;48.066;14.124;2022-10-31T07:55:04;97186.16;;;9.55;76.33
49044;BME280;34860;48.066;14.124;2022-10-31T07:57:58;97183.66;;;9.64;76.30
49044;BME280;34860;48.066;14.124;2022-10-31T08:00:48;97181.50;;;9.76;76.22
49044;BME280;34860;48.066;14.124;2022-10-31T08:03:49;97181.78;;;9.85;76.07
49044;BME280;34860;48.066;14.124;2022-10-31T08:06:59;97179.84;;;9.82;76.02
49044;BME280;34860;48.066;14.124;2022-10-31T08:09:54;97181.84;;;9.81;76.15
49044;BME280;34860;48.066;14.124;2022-10-31T08:12:54;97189.22;;;9.92;76.13
49044;BME280;34860;48.066;14.124;2022-10-31T08:15:43;97186.75;;;9.97;76.07
49044;BME280;34860;48.066;14.124;2022-10-31T08:18:37;97186.63;;;10.05;75.93
49044;BME280;34860;48.066;14.124;2022-10-31T08:21:30;97183.78;;;10.08;76.06
49044;BME280;34860;48.066;14.124;2022-10-31T08:24:22;97186.84;;;10.17;76.13
49044;BME280;34860;48.066;14.124;2022-10-31T08:27:12;97176.03;;;10.23;75.89
49044;BME280;34860;48.066;14.124;2022-10-31T08:30:00;97174.72;;;10.31;75.86
49044;BME280;34860;48.066;14.124;2022-10-31T08:32:58;97174.59;;;10.39;75.76
49044;BME280;34860;48.066;14.124;2022-10-31T08:36:06;97172.19;;;10.41;75.59
49044;BME280;34860;48.066;14.124;2022-10-31T08:39:10;97175.81;;;10.38;75.79
49044;BME280;34860;48.066;14.124;2022-10-31T08:41:58;97177.81;;;10.37;75.80
49044;BME280;34860;48.066;14.124;2022-10-31T08:44:48;97168.09;;;10.49;75.76
49044;BME280;34860;48.066;14.124;2022-10-31T08:47:40;97163.44;;;10.66;75.55
49044;BME280;34860;48.066;14.124;2022-10-31T08:50:31;97162.78;;;10.78;75.35
49044;BME280;34860;48.066;14.124;2022-10-31T08:53:21;97161.50;;;10.83;75.39
49044;BME280;34860;48.066;14.124;2022-10-31T08:56:23;97158.16;;;10.92;75.35
49044;BME280;34860;48.066;14.124;2022-10-31T08:59:12;97154.38;;;11.02;75.20
49044;BME280;34860;48.066;14.124;2022-10-31T09:02:24;97159.88;;;11.05;75.34
49044;BME280;34860;48.066;14.124;2022-10-31T09:05:18;97159.88;;;11.05;75.32
49044;BME280;34860;48.066;14.124;2022-10-31T09:08:07;97153.25;;;10.99;75.79
49044;BME280;34860;48.066;14.124;2022-10-31T09:10:59;97146.09;;;11.18;75.83
49044;BME280;34860;48.066;14.124;2022-10-31T09:14:12;97150.78;;;11.41;75.49
49044;BME280;34860;48.066;14.124;2022-10-31T09:17:13;97146.81;;;11.59;75.17
49044;BME280;34860;48.066;14.124;2022-10-31T09:20:22;97143.63;;;11.77;74.88
49044;BME280;34860;48.066;14.124;2022-10-31T09:23:14;97144.91;;;11.92;74.77
49044;BME280;34860;48.066;14.124;2022-10-31T09:26:04;97137.84;;;12.04;74.63
49044;BME280;34860;48.066;14.124;2022-10-31T09:29:03;97133.31;;;12.10;74.55
49044;BME280;34860;48.066;14.124;2022-10-31T09:31:55;97140.63;;;12.21;74.43
49044;BME280;34860;48.066;14.124;2022-10-31T09:34:47;97138.53;;;12.25;74.55
49044;BME280;34860;48.066;14.124;2022-10-31T09:37:39;97125.56;;;12.18;74.83
49044;BME280;34860;48.066;14.124;2022-10-31T09:40:31;97127.16;;;12.19;74.86
49044;BME280;34860;48.066;14.124;2022-10-31T09:43:25;97126.28;;;12.22;74.89
49044;BME280;34860;48.066;14.124;2022-10-31T09:46:22;97122.16;;;12.10;75.20
49044;BME280;34860;48.066;14.124;2022-10-31T09:49:33;97123.38;;;12.09;75.37
49044;BME280;34860;48.066;14.124;2022-10-31T09:52:26;97117.03;;;12.09;75.57
49044;BME280;34860;48.066;14.124;2022-10-31T09:55:19;97116.56;;;12.27;75.25
49044;BME280;34860;48.066;14.124;2022-10-31T09:58:14;97108.81;;;12.51;75.13
49044;BME280;34860;48.066;14.124;2022-10-31T10:01:05;97114.03;;;12.78;74.71
49044;BME280;34860;48.066;14.124;2022-10-31T10:03:58;97113.44;;;13.00;74.39
49044;BME280;34860;48.066;14.124;2022-10-31T10:07:18;97114.47;;;13.19;74.23
49044;BME280;34860;48.066;14.124;2022-10-31T10:10:48;97110.41;;;13.36;74.04
49044;BME280;34860;48.066;14.124;2022-10-31T10:14:16;97106.03;;;13.48;74.26
49044;BME280;34860;48.066;14.124;2022-10-31T10:17:16;97114.78;;;13.63;73.97
49044;BME280;34860;48.066;14.124;2022-10-31T10:20:18;97113.53;;;13.64;74.44
49044;BME280;34860;48.066;14.124;2022-10-31T10:23:31;97111.53;;;13.65;74.47
49044;BME280;34860;48.066;14.124;2022-10-31T10:26:29;97106.84;;;13.61;74.71
49044;BME280;34860;48.066;14.124;2022-10-31T10:29:31;97101.53;;;13.25;75.67
49044;BME280;34860;48.066;14.124;2022-10-31T10:32:24;97104.53;;;13.18;76.09
49044;BME280;34860;48.066;14.124;2022-10-31T10:35:20;97097.66;;;13.35;75.86
49044;BME280;34860;48.066;14.124;2022-10-31T10:38:16;97098.69;;;13.54;75.57
49044;BME280;34860;48.066;14.124;2022-10-31T10:41:11;97093.91;;;13.68;75.18
49044;BME280;34860;48.066;14.124;2022-10-31T10:44:07;97090.22;;;13.71;75.33
49044;BME280;34860;48.066;14.124;2022-10-31T10:46:59;97078.25;;;13.57;75.63
49044;BME280;34860;48.066;14.124;2022-10-31T10:50:12;97074.00;;;13.53;75.60
49044;BME280;34860;48.066;14.124;2022-10-31T10:53:09;97071.44;;;13.46;76.25
49044;BME280;34860;48.066;14.124;2022-10-31T10:56:16;97072.00;;;13.53;76.19
49044;BME280;34860;48.066;14.124;2022-10-31T10:59:10;97064.84;;;13.52;76.42
49044;BME280;34860;48.066;14.124;2022-10-31T11:01:59;97059.38;;;13.61;75.80
49044;BME280;34860;48.066;14.124;2022-10-31T11:04:51;97068.31;;;13.56;75.97
49044;BME280;34860;48.066;14.124;2022-10-31T11:07:41;97058.94;;;13.37;76.56
49044;BME280;34860;48.066;14.124;2022-10-31T11:10:30;97051.78;;;13.36;76.92
49044;BME280;34860;48.066;14.124;2022-10-31T11:13:23;97045.72;;;13.25;77.21
49044;BME280;34860;48.066;14.124;2022-10-31T11:16:15;97042.25;;;13.21;77.12
49044;BME280;34860;48.066;14.124;2022-10-31T11:19:17;97044.81;;;13.28;77.08
49044;BME280;34860;48.066;14.124;2022-10-31T11:22:07;97041.16;;;13.31;76.93
49044;BME280;34860;48.066;14.124;2022-10-31T11:24:57;97039.47;;;13.34;77.06
49044;BME280;34860;48.066;14.124;2022-10-31T11:27:46;97034.25;;;13.36;76.89
49044;BME280;34860;48.066;14.124;2022-10-31T11:30:43;97029.78;;;13.38;77.01
49044;BME280;34860;48.066;14.124;2022-10-31T11:33:37;97027.53;;;13.46;76.54
49044;BME280;34860;48.066;14.124;2022-10-31T11:36:30;97026.75;;;13.58;76.48
49044;BME280;34860;48.066;14.124;2022-10-31T11:39:22;97019.84;;;13.63;76.39
49044;BME280;34860;48.066;14.124;2022-10-31T11:42:11;97017.81;;;13.63;76.39
49044;BME280;34860;48.066;14.124;2022-10-31T11:45:05;97012.66;;;13.62;76.67
49044;BME280;34860;48.066;14.124;2022-10-31T11:47:57;97013.66;;;13.68;76.46
49044;BME280;34860;48.066;14.124;2022-10-31T11:50:50;97012.19;;;13.76;76.38
49044;BME280;34860;48.066;14.124;2022-10-31T11:53:51;97003.69;;;13.80;75.97
49044;BME280;34860;48.066;14.124;2022-10-31T11:56:42;97000.34;;;13.85;76.14
49044;BME280;34860;48.066;14.124;2022-10-31T11:59:31;96995.84;;;13.88;76.20
49044;BME280;34860;48.066;14.124;2022-10-31T12:02:20;96985.34;;;13.92;76.16
49044;BME280;34860;48.066;14.124;2022-10-31T12:05:17;96981.78;;;13.91;76.40
49044;BME280;34860;48.066;14.124;2022-10-31T12:08:07;96978.41;;;13.96;76.33
49044;BME280;34860;48.066;14.124;2022-10-31T12:11:07;96982.66;;;14.01;76.39
49044;BME280;34860;48.066;14.124;2022-10-31T12:14:08;96978.81;;;14.08;76.25
49044;BME280;34860;48.066;14.124;2022-10-31T12:17:15;96979.00;;;14.13;76.22
49044;BME280;34860;48.066;14.124;2022-10-31T12:20:18;96966.34;;;14.22;76.16
49044;BME280;34860;48.066;14.124;2022-10-31T12:23:14;96966.09;;;14.29;75.88
49044;BME280;34860;48.066;14.124;2022-10-31T12:26:14;96964.53;;;14.50;75.76
49044;BME280;34860;48.066;14.124;2022-10-31T12:29:16;96956.88;;;15.35;73.98
49044;BME280;34860;48.066;14.124;2022-10-31T12:32:22;96954.84;;;15.36;73.80
49044;BME280;34860;48.066;14.124;2022-10-31T12:35:26;96947.91;;;15.50;73.85
49044;BME280;34860;48.066;14.124;2022-10-31T12:38:32;96942.44;;;15.46;74.06
49044;BME280;34860;48.066;14.124;2022-10-31T12:41:42;96938.13;;;15.64;73.56
49044;BME280;34860;48.066;14.124;2022-10-31T12:44:53;96926.22;;;15.41;74.08
49044;BME280;34860;48.066;14.124;2022-10-31T12:47:58;96924.47;;;15.25;74.78
49044;BME280;34860;48.066;14.124;2022-10-31T12:50:59;96928.19;;;15.13;75.22
49044;BME280;34860;48.066;14.124;2022-10-31T12:54:01;96924.94;;;15.14;75.08
49044;BME280;34860;48.066;14.124;2022-10-31T12:57:04;96910.94;;;15.14;75.26
49044;BME280;34860;48.066;14.124;2022-10-31T13:00:01;96907.81;;;15.12;75.42
49044;BME280;34860;48.066;14.124;2022-10-31T13:02:53;96902.16;;;15.03;75.38
49044;BME280;34860;48.066;14.124;2022-10-31T13:05:46;96908.41;;;15.07;75.44
49044;BME280;34860;48.066;14.124;2022-10-31T13:08:43;96905.09;;;15.40;74.81
49044;BME280;34860;48.066;14.124;2022-10-31T13:11:37;96913.47;;;15.49;74.30
49044;BME280;34860;48.066;14.124;2022-10-31T13:14:32;96902.56;;;15.33;74.64
49044;BME280;34860;48.066;14.124;2022-10-31T13:17:28;96906.72;;;15.19;75.18
49044;BME280;34860;48.066;14.124;2022-10-31T13:20:23;96897.09;;;15.20;75.21
49044;BME280;34860;48.066;14.124;2022-10-31T13:23:18;96897.44;;;15.31;75.09
49044;BME280;34860;48.066;14.124;2022-10-31T13:26:37;96894.31;;;15.29;75.11
49044;BME280;34860;48.066;14.124;2022-10-31T13:29:29;96898.88;;;15.45;75.21
49044;BME280;34860;48.066;14.124;2022-10-31T13:32:20;96885.16;;;15.47;75.12
49044;BME280;34860;48.066;14.124;2022-10-31T13:35:16;96886.59;;;15.70;75.54
49044;BME280;34860;48.066;14.124;2022-10-31T13:38:16;96883.38;;;17.13;72.15
49044;BME280;34860;48.066;14.124;2022-10-31T13:41:13;96889.38;;;18.47;68.82
49044;BME280;34860;48.066;14.124;2022-10-31T13:44:16;96883.56;;;18.50;68.28
49044;BME280;34860;48.066;14.124;2022-10-31T13:47:21;96890.13;;;17.78;70.43
49044;BME280;34860;48.066;14.124;2022-10-31T13:50:20;96881.94;;;17.17;72.22
49044;BME280;34860;48.066;14.124;2022-10-31T13:53:12;96879.91;;;16.75;73.63
49044;BME280;34860;48.066;14.124;2022-10-31T13:56:14;96876.44;;;16.47;74.42
49044;BME280;34860;48.066;14.124;2022-10-31T13:59:17;96875.41;;;15.98;75.60
49044;BME280;34860;48.066;14.124;2022-10-31T14:02:14;96868.84;;;15.64;76.51
49044;BME280;34860;48.066;14.124;2022-10-31T14:05:15;96866.03;;;15.46;77.08
49044;BME280;34860;48.066;14.124;2022-10-31T14:08:15;96866.47;;;15.25;77.48
49044;BME280;34860;48.066;14.124;2022-10-31T14:11:08;96872.66;;;15.20;77.28
49044;BME280;34860;48.066;14.124;2022-10-31T14:13:58;96868.47;;;15.06;77.51
49044;BME280;34860;48.066;14.124;2022-10-31T14:16:55;96859.41;;;15.02;77.46
49044;BME280;34860;48.066;14.124;2022-10-31T14:19:58;96861.91;;;15.00;77.43
49044;BME280;34860;48.066;14.124;2022-10-31T14:22:48;96861.72;;;14.95;77.09
49044;BME280;34860;48.066;14.124;2022-10-31T14:25:37;96854.25;;;14.92;77.24
49044;BME280;34860;48.066;14.124;2022-10-31T14:28:33;96856.88;;;14.86;77.26
49044;BME280;34860;48.066;14.124;2022-10-31T14:31:30;96855.94;;;14.80;77.14
49044;BME280;34860;48.066;14.124;2022-10-31T14:34:27;96856.84;;;14.77;77.13
49044;BME280;34860;48.066;14.124;2022-10-31T14:37:35;96846.25;;;14.71;76.89
49044;BME280;34860;48.066;14.124;2022-10-31T14:40:35;96848.25;;;14.62;77.14
49044;BME280;34860;48.066;14.124;2022-10-31T14:43:45;96848.03;;;14.56;77.32
49044;BME280;34860;48.066;14.124;2022-10-31T14:46:47;96845.53;;;14.49;77.34
49044;BME280;34860;48.066;14.124;2022-10-31T14:49:51;96838.16;;;14.42;77.43
49044;BME280;34860;48.066;14.124;2022-10-31T14:52:47;96844.69;;;14.39;77.32
49044;BME280;34860;48.066;14.124;2022-10-31T14:55:40;96844.50;;;14.33;77.27
49044;BME280;34860;48.066;14.124;2022-10-31T14:58:36;96838.09;;;14.24;77.33
49044;BME280;34860;48.066;14.124;2022-10-31T15:01:29;96832.91;;;14.13;77.33
49044;BME280;34860;48.066;14.124;2022-10-31T15:04:21;96839.22;;;14.04;77.52
49044;BME280;34860;48.066;14.124;2022-10-31T15:07:15;96833.25;;;13.93;77.76
49044;BME280;34860;48.066;14.124;2022-10-31T15:10:22;96828.06;;;13.82;77.83
49044;BME280;34860;48.066;14.124;2022-10-31T15:13:17;96832.00;;;13.72;77.65
49044;BME280;34860;48.066;14.124;2022-10-31T15:16:08;96833.50;;;13.63;78.13
49044;BME280;34860;48.066;14.124;2022-10-31T15:19:02;96825.38;;;13.56;78.12
49044;BME280;34860;48.066;14.124;2022-10-31T15:21:53;96822.81;;;13.49;78.05
49044;BME280;34860;48.066;14.124;2022-10-31T15:24:44;96821.25;;;13.48;77.96
49044;BME280;34860;48.066;14.124;2022-10-31T15:27:33;96823.09;;;13.42;77.92
49044;BME280;34860;48.066;14.124;2022-10-31T15:30:24;96829.13;;;13.40;77.75